createdAt,value
2019-04-30T00:00:21.095Z,67.26
2019-04-30T00:01:20.841Z,67.07
2019-04-30T00:03:17.984Z,66.59
2019-04-30T00:04:15.651Z,66.97
2019-04-30T00:06:07.577Z,67.16
2019-04-30T00:07:10.257Z,67.64
2019-04-30T00:09:00.431Z,67.64
2019-04-30T00:10:00.471Z,67.35
2019-04-30T00:12:10.943Z,67.64
2019-04-30T00:13:14.853Z,67.26
2019-04-30T00:15:06.110Z,67.64
2019-04-30T00:16:05.337Z,67.26
2019-04-30T00:18:01.327Z,66.97
2019-04-30T00:19:00.485Z,67.07
2019-04-30T00:20:50.514Z,67.74
2019-04-30T00:21:56.860Z,68.21
2019-04-30T00:23:43.673Z,68.12
2019-04-30T00:24:46.766Z,68.02
2019-04-30T00:26:39.898Z,67.74
2019-04-30T00:27:36.847Z,67.74
2019-04-30T00:29:31.052Z,67.83
2019-04-30T00:30:30.036Z,68.12
2019-04-30T00:32:23.201Z,67.74
2019-04-30T00:33:25.282Z,67.64
2019-04-30T00:35:19.539Z,68.21
2019-04-30T00:36:17.354Z,68.02
2019-04-30T00:38:09.586Z,68.40
2019-04-30T00:39:13.356Z,68.02
2019-04-30T00:41:06.877Z,67.93
2019-04-30T00:42:02.746Z,68.21
2019-04-30T00:43:56.036Z,67.93
2019-04-30T00:44:59.630Z,68.02
2019-04-30T00:46:49.503Z,68.30
2019-04-30T00:47:49.171Z,67.99
2019-04-30T00:49:42.370Z,68.12
2019-04-30T00:50:42.406Z,68.02
2019-04-30T00:52:52.930Z,68.56
2019-04-30T00:53:52.948Z,67.99
2019-04-30T00:55:48.369Z,68.46
2019-04-30T00:56:46.178Z,68.18
2019-04-30T00:58:39.330Z,68.37
2019-04-30T00:59:39.689Z,68.08
2019-04-30T01:01:32.552Z,68.02
2019-04-30T01:02:32.561Z,68.18
2019-04-30T01:04:28.149Z,68.46
2019-04-30T01:05:27.117Z,68.84
2019-04-30T01:07:18.884Z,67.99
2019-04-30T01:08:21.130Z,68.65
2019-04-30T01:10:12.337Z,68.37
2019-04-30T01:11:12.302Z,68.65
2019-04-30T01:13:08.071Z,69.23
2019-04-30T01:14:05.509Z,68.65
2019-04-30T01:15:58.847Z,68.94
2019-04-30T01:16:59.396Z,68.46
2019-04-30T01:18:51.819Z,68.75
2019-04-30T01:19:54.481Z,68.56
2019-04-30T01:21:47.122Z,69.23
2019-04-30T01:22:44.979Z,69.13
2019-04-30T01:24:38.683Z,68.37
2019-04-30T01:25:38.873Z,68.94
2019-04-30T01:27:31.332Z,69.10
2019-04-30T01:28:31.344Z,68.81
2019-04-30T01:30:24.559Z,69.76
2019-04-30T01:31:24.573Z,70.14
2019-04-30T01:33:19.180Z,69.67
2019-04-30T01:34:19.605Z,69.85
2019-04-30T01:36:13.364Z,69.89
2019-04-30T01:37:10.923Z,69.57
2019-04-30T01:39:04.116Z,70.05
2019-04-30T01:40:10.648Z,69.95
2019-04-30T01:41:58.697Z,69.95
2019-04-30T01:42:59.206Z,69.95
2019-04-30T01:44:53.590Z,70.24
2019-04-30T01:45:50.508Z,69.95
2019-04-30T01:47:43.671Z,69.99
2019-04-30T01:48:47.994Z,69.85
2019-04-30T01:50:38.718Z,69.29
2019-04-30T01:51:38.641Z,69.85
2019-04-30T01:53:30.022Z,69.99
2019-04-30T01:54:30.049Z,69.95
2019-04-30T01:56:23.221Z,69.85
2019-04-30T01:57:23.203Z,69.85
2019-04-30T01:59:16.451Z,70.14
2019-04-30T02:00:16.475Z,69.85
2019-04-30T02:02:09.627Z,69.51
2019-04-30T02:03:11.185Z,69.67
2019-04-30T02:05:02.881Z,69.67
2019-04-30T02:06:02.837Z,69.76
2019-04-30T02:07:56.023Z,69.95
2019-04-30T02:08:56.033Z,69.48
2019-04-30T02:10:51.388Z,69.76
2019-04-30T02:11:49.220Z,70.43
2019-04-30T02:13:42.395Z,69.95
2019-04-30T02:14:42.429Z,69.67
2019-04-30T02:16:35.588Z,69.85
2019-04-30T02:17:35.591Z,69.95
2019-04-30T02:19:31.038Z,69.85
2019-04-30T02:20:28.914Z,69.85
2019-04-30T02:22:21.931Z,69.85
2019-04-30T02:23:21.936Z,70.14
2019-04-30T02:25:15.419Z,69.38
2019-04-30T02:26:15.146Z,69.85
2019-04-30T02:28:08.969Z,69.85
2019-04-30T02:29:09.164Z,70.05
2019-04-30T02:31:01.542Z,69.38
2019-04-30T02:32:01.545Z,69.85
2019-04-30T02:33:54.748Z,70.05
2019-04-30T02:34:54.756Z,70.05
2019-04-30T02:36:49.964Z,69.85
2019-04-30T02:37:50.541Z,69.85
2019-04-30T02:39:41.065Z,69.95
2019-04-30T02:40:42.682Z,69.85
2019-04-30T02:42:34.289Z,70.24
2019-04-30T02:43:34.300Z,70.52
2019-04-30T02:45:29.859Z,69.76
2019-04-30T02:46:31.922Z,70.43
2019-04-30T02:48:20.652Z,70.52
2019-04-30T02:49:20.722Z,70.33
2019-04-30T02:51:13.822Z,70.62
2019-04-30T02:52:13.827Z,70.52
2019-04-30T02:54:09.545Z,71.28
2019-04-30T02:55:09.450Z,70.81
2019-04-30T02:57:15.607Z,71.00
2019-04-30T02:58:15.569Z,70.52
2019-04-30T03:00:09.947Z,70.43
2019-04-30T03:01:10.282Z,70.24
2019-04-30T03:03:02.058Z,69.76
2019-04-30T03:04:01.994Z,70.05
2019-04-30T03:05:55.121Z,70.33
2019-04-30T03:06:55.149Z,70.72
2019-04-30T03:08:51.111Z,70.62
2019-04-30T03:09:49.984Z,70.10
2019-04-30T03:11:41.518Z,70.30
2019-04-30T03:12:41.503Z,70.33
2019-04-30T03:14:34.663Z,70.43
2019-04-30T03:15:34.681Z,70.62
2019-04-30T03:17:29.392Z,70.58
2019-04-30T03:18:30.236Z,70.49
2019-04-30T03:20:34.705Z,70.87
2019-04-30T03:21:21.098Z,70.68
2019-04-30T03:23:14.353Z,70.87
2019-04-30T03:24:14.317Z,70.77
2019-04-30T03:26:09.669Z,70.20
2019-04-30T03:27:09.653Z,70.10
2019-04-30T03:29:23.484Z,70.20
2019-04-30T03:30:21.906Z,70.68
2019-04-30T03:32:13.418Z,70.01
2019-04-30T03:33:12.648Z,70.30
2019-04-30T03:35:04.414Z,70.68
2019-04-30T03:36:04.420Z,70.39
2019-04-30T03:37:59.207Z,70.39
2019-04-30T03:39:00.001Z,69.82
2019-04-30T03:40:50.721Z,70.87
2019-04-30T03:41:50.744Z,71.63
2019-04-30T03:43:44.046Z,70.20
2019-04-30T03:44:44.056Z,70.49
2019-04-30T03:46:39.811Z,70.68
2019-04-30T03:47:40.317Z,70.97
2019-04-30T03:49:31.499Z,70.30
2019-04-30T03:50:48.287Z,70.87
2019-04-30T03:52:23.576Z,70.39
2019-04-30T03:53:23.600Z,70.39
2019-04-30T03:55:16.791Z,69.82
2019-04-30T03:56:22.407Z,70.58
2019-04-30T03:58:10.308Z,70.39
2019-04-30T03:59:10.835Z,70.87
2019-04-30T04:01:03.152Z,70.39
2019-04-30T04:02:03.142Z,70.39
2019-04-30T04:03:56.331Z,70.49
2019-04-30T04:04:56.325Z,69.82
2019-04-30T04:06:49.495Z,69.44
2019-04-30T04:07:52.932Z,70.68
2019-04-30T04:09:42.730Z,70.49
2019-04-30T04:10:42.669Z,72.96
2019-04-30T04:12:35.801Z,70.49
2019-04-30T04:13:35.840Z,72.39
2019-04-30T04:15:29.892Z,70.20
2019-04-30T04:16:32.127Z,70.58
2019-04-30T04:18:22.166Z,69.73
2019-04-30T04:19:22.161Z,69.82
2019-04-30T04:21:16.965Z,70.01
2019-04-30T04:22:15.308Z,70.10
2019-04-30T04:24:10.636Z,69.92
2019-04-30T04:25:12.688Z,69.92
2019-04-30T04:27:01.683Z,69.44
2019-04-30T04:28:01.670Z,69.54
2019-04-30T04:29:54.833Z,69.85
2019-04-30T04:30:54.834Z,69.76
2019-04-30T04:32:50.115Z,70.81
2019-04-30T04:33:49.662Z,69.85
2019-04-30T04:35:41.154Z,74.65
2019-04-30T04:36:43.510Z,73.38
2019-04-30T04:38:34.485Z,70.72
2019-04-30T04:39:34.469Z,69.10
2019-04-30T04:41:29.572Z,72.42
2019-04-30T04:42:30.009Z,70.05
2019-04-30T04:44:21.108Z,68.71
2019-04-30T04:45:21.008Z,68.15
2019-04-30T04:47:16.134Z,68.71
2019-04-30T04:48:14.056Z,71.13
2019-04-30T04:50:10.017Z,68.90
2019-04-30T04:51:10.861Z,69.29
2019-04-30T04:53:00.462Z,69.51
2019-04-30T04:54:03.201Z,68.18
2019-04-30T04:56:12.230Z,70.84
2019-04-30T04:57:17.915Z,72.27
2019-04-30T04:59:05.500Z,69.51
2019-04-30T05:00:07.559Z,71.51
2019-04-30T05:02:16.006Z,68.84
2019-04-30T05:03:16.024Z,69.04
2019-04-30T05:05:09.773Z,68.27
2019-04-30T05:06:11.549Z,72.27
2019-04-30T05:08:02.488Z,69.89
2019-04-30T05:09:02.522Z,70.47
2019-04-30T05:10:55.698Z,69.32
2019-04-30T05:11:55.718Z,68.75
2019-04-30T05:13:49.128Z,68.21
2019-04-30T05:14:48.906Z,67.99
2019-04-30T05:16:59.442Z,67.64
2019-04-30T05:17:59.417Z,66.88
2019-04-30T05:19:52.575Z,67.83
2019-04-30T05:20:52.577Z,67.07
2019-04-30T05:22:45.736Z,67.55
2019-04-30T05:23:45.863Z,67.26
2019-04-30T05:25:39.101Z,67.26
2019-04-30T05:26:38.950Z,67.16
2019-04-30T05:28:32.162Z,67.16
2019-04-30T05:29:32.161Z,67.26
2019-04-30T05:31:25.340Z,66.59
2019-04-30T05:32:25.354Z,66.59
2019-04-30T05:34:18.988Z,66.50
2019-04-30T05:35:18.657Z,67.35
2019-04-30T05:37:30.073Z,66.78
2019-04-30T05:38:31.327Z,66.31
2019-04-30T05:40:42.552Z,66.78
2019-04-30T05:41:41.155Z,66.44
2019-04-30T05:43:34.890Z,66.88
2019-04-30T05:44:34.930Z,66.97
2019-04-30T05:46:29.879Z,66.72
2019-04-30T05:47:29.228Z,66.34
2019-04-30T05:49:39.570Z,66.69
2019-04-30T05:50:39.579Z,67.00
2019-04-30T05:52:32.837Z,66.05
2019-04-30T05:53:32.847Z,66.53
2019-04-30T05:55:26.094Z,65.86
2019-04-30T05:56:26.104Z,66.63
2019-04-30T05:58:19.932Z,66.34
2019-04-30T05:59:20.619Z,66.53
2019-04-30T06:01:12.499Z,65.96
2019-04-30T06:02:12.493Z,66.34
2019-04-30T06:04:05.687Z,65.77
2019-04-30T06:05:05.687Z,65.77
2019-04-30T06:06:58.843Z,65.67
2019-04-30T06:07:59.355Z,65.96
2019-04-30T06:09:52.091Z,66.24
2019-04-30T06:10:52.120Z,66.15
2019-04-30T06:12:45.291Z,66.24
2019-04-30T06:13:45.275Z,66.24
2019-04-30T06:15:39.101Z,65.58
2019-04-30T06:16:39.339Z,65.20
2019-04-30T06:18:31.662Z,65.96
2019-04-30T06:19:31.661Z,64.72
2019-04-30T06:21:42.229Z,65.58
2019-04-30T06:22:42.227Z,64.53
2019-04-30T06:24:35.365Z,64.43
2019-04-30T06:25:52.899Z,65.10
2019-04-30T06:27:29.165Z,63.76
2019-04-30T06:28:29.227Z,64.53
2019-04-30T06:30:21.668Z,64.91
2019-04-30T06:31:31.821Z,65.67
2019-04-30T06:33:14.863Z,66.34
2019-04-30T06:34:14.857Z,65.23
2019-04-30T06:36:08.533Z,62.81
2019-04-30T06:37:09.587Z,63.48
2019-04-30T06:39:01.214Z,63.29
2019-04-30T06:40:01.299Z,64.43
2019-04-30T06:42:04.219Z,67.04
2019-04-30T06:42:54.438Z,68.18
2019-04-30T06:44:49.391Z,66.75
2019-04-30T06:45:48.824Z,67.83
2019-04-30T06:47:40.762Z,65.99
2019-04-30T06:48:41.858Z,64.65
2019-04-30T06:50:33.894Z,65.83
2019-04-30T06:51:33.922Z,63.23
2019-04-30T06:53:29.084Z,66.69
2019-04-30T06:54:28.775Z,65.55
2019-04-30T06:56:20.345Z,66.12
2019-04-30T06:57:20.353Z,64.88
2019-04-30T06:59:13.525Z,61.54
2019-04-30T07:00:13.536Z,61.73
2019-04-30T07:02:21.048Z,63.20
2019-04-30T07:03:21.062Z,63.07
2019-04-30T07:05:14.204Z,61.47
2019-04-30T07:06:14.218Z,63.86
2019-04-30T07:08:11.408Z,62.15
2019-04-30T07:09:08.848Z,60.90
2019-04-30T07:11:07.415Z,58.90
2019-04-30T07:12:00.591Z,58.42
2019-04-30T07:13:53.847Z,60.24
2019-04-30T07:14:53.769Z,60.24
2019-04-30T07:16:46.954Z,62.27
2019-04-30T07:17:49.011Z,60.07
2019-04-30T07:19:53.288Z,61.03
2019-04-30T07:20:40.142Z,62.43
2019-04-30T07:22:40.135Z,60.84
2019-04-30T07:23:33.293Z,62.55
2019-04-30T07:25:26.465Z,60.49
2019-04-30T07:26:28.740Z,61.25
2019-04-30T07:28:19.671Z,60.20
2019-04-30T07:29:19.759Z,61.06
2019-04-30T07:31:30.209Z,58.10
2019-04-30T07:32:30.211Z,55.80
2019-04-30T07:34:23.419Z,63.26
2019-04-30T07:35:23.401Z,58.67
2019-04-30T07:37:23.906Z,56.57
2019-04-30T07:38:16.603Z,61.82
2019-04-30T07:40:09.776Z,59.08
2019-04-30T07:41:09.795Z,56.09
2019-04-30T07:43:02.972Z,53.70
2019-04-30T07:44:02.991Z,57.26
2019-04-30T07:45:56.137Z,61.95
2019-04-30T07:46:56.178Z,58.32
2019-04-30T07:48:50.227Z,56.79
2019-04-30T07:49:54.920Z,62.55
2019-04-30T07:51:42.939Z,59.88
2019-04-30T07:53:01.008Z,59.69
2019-04-30T07:54:35.656Z,54.49
2019-04-30T07:55:35.672Z,54.21
2019-04-30T07:57:29.201Z,53.16
2019-04-30T07:58:29.896Z,54.02
2019-04-30T08:00:21.985Z,56.15
2019-04-30T08:01:22.005Z,54.02
2019-04-30T08:03:15.360Z,53.16
2019-04-30T08:04:15.219Z,54.39
2019-04-30T08:06:10.129Z,52.48
2019-04-30T08:07:09.789Z,55.76
2019-04-30T08:09:02.003Z,57.42
2019-04-30T08:10:01.627Z,53.85
2019-04-30T08:12:21.619Z,53.66
2019-04-30T08:13:15.275Z,55.69
2019-04-30T08:15:23.173Z,57.04
2019-04-30T08:16:22.865Z,55.51
2019-04-30T08:18:16.022Z,51.48
2019-04-30T08:19:16.028Z,52.15
2019-04-30T08:21:09.556Z,51.51
2019-04-30T08:22:09.639Z,54.19
2019-04-30T08:24:02.485Z,54.48
2019-04-30T08:25:02.489Z,51.54
2019-04-30T08:26:55.713Z,49.91
2019-04-30T08:27:55.704Z,48.28
2019-04-30T08:29:49.939Z,47.99
2019-04-30T08:30:49.040Z,47.71
2019-04-30T08:32:42.066Z,51.92
2019-04-30T08:33:42.080Z,49.43
2019-04-30T08:35:35.336Z,54.44
2019-04-30T08:36:35.334Z,51.65
2019-04-30T08:38:45.868Z,48.18
2019-04-30T08:39:45.860Z,49.74
2019-04-30T08:41:39.302Z,48.16
2019-04-30T08:42:40.345Z,47.30
2019-04-30T08:44:32.186Z,44.15
2019-04-30T08:45:34.728Z,43.84
2019-04-30T08:47:25.347Z,43.27
2019-04-30T08:48:25.366Z,43.65
2019-04-30T08:50:36.877Z,43.32
2019-04-30T08:51:38.876Z,43.20
2019-04-30T08:53:33.399Z,45.12
2019-04-30T08:54:30.090Z,46.19
2019-04-30T08:56:23.262Z,45.64
2019-04-30T08:57:23.262Z,46.03
2019-04-30T08:59:16.452Z,45.26
2019-04-30T09:00:16.478Z,43.15
2019-04-30T09:02:23.948Z,44.51
2019-04-30T09:03:23.968Z,41.13
2019-04-30T09:05:18.524Z,43.27
2019-04-30T09:06:17.140Z,41.44
2019-04-30T09:08:24.632Z,39.68
2019-04-30T09:09:24.625Z,40.54
2019-04-30T09:11:25.198Z,42.00
2019-04-30T09:12:19.597Z,41.83
2019-04-30T09:14:11.098Z,40.33
2019-04-30T09:15:11.068Z,39.20
2019-04-30T09:17:04.249Z,37.18
2019-04-30T09:18:08.244Z,38.24
2019-04-30T09:19:58.844Z,38.14
2019-04-30T09:21:04.142Z,38.12
2019-04-30T09:22:50.637Z,37.05
2019-04-30T09:23:52.682Z,37.82
2019-04-30T09:25:43.755Z,39.04
2019-04-30T09:26:43.761Z,40.22
2019-04-30T09:28:36.954Z,38.47
2019-04-30T09:29:36.968Z,37.41
2019-04-30T09:31:30.138Z,39.64
2019-04-30T09:32:30.133Z,39.95
2019-04-30T09:34:23.274Z,37.85
2019-04-30T09:35:23.311Z,37.27
2019-04-30T09:37:18.512Z,37.30
2019-04-30T09:38:16.483Z,36.99
2019-04-30T09:40:16.151Z,33.78
2019-04-30T09:41:09.647Z,34.27
2019-04-30T09:43:18.792Z,35.80
2019-04-30T09:44:19.469Z,37.15
2019-04-30T09:46:27.172Z,39.20
2019-04-30T09:47:25.761Z,35.36
2019-04-30T09:49:19.452Z,35.97
2019-04-30T09:50:18.941Z,36.02
2019-04-30T09:52:12.380Z,33.63
2019-04-30T09:53:12.203Z,32.21
2019-04-30T09:55:05.350Z,30.03
2019-04-30T09:56:05.298Z,29.45
2019-04-30T09:58:18.264Z,29.90
2019-04-30T09:59:15.771Z,25.84
2019-04-30T10:01:09.407Z,24.84
2019-04-30T10:02:09.296Z,23.04
2019-04-30T10:04:20.654Z,19.96
2019-04-30T10:05:20.302Z,19.78
2019-04-30T10:07:12.676Z,19.00
2019-04-30T10:08:12.684Z,19.21
2019-04-30T10:10:06.645Z,19.90
2019-04-30T10:11:05.845Z,18.37
2019-04-30T10:13:16.403Z,15.36
2019-04-30T10:14:16.415Z,19.75
2019-04-30T10:16:09.950Z,17.10
2019-04-30T10:17:09.662Z,15.44
2019-04-30T10:19:02.859Z,15.74
2019-04-30T10:20:02.857Z,15.74
2019-04-30T10:21:56.048Z,15.06
2019-04-30T10:22:56.073Z,15.06
2019-04-30T10:24:49.500Z,14.48
2019-04-30T10:25:49.284Z,13.90
2019-04-30T10:27:42.453Z,14.61
2019-04-30T10:28:42.454Z,13.30
2019-04-30T10:30:35.648Z,15.06
2019-04-30T10:31:35.668Z,14.59
2019-04-30T10:33:28.880Z,13.70
2019-04-30T10:34:28.880Z,14.67
2019-04-30T10:36:22.083Z,13.53
2019-04-30T10:37:22.082Z,12.65
2019-04-30T10:39:15.284Z,12.52
2019-04-30T10:40:15.275Z,13.06
2019-04-30T10:42:08.438Z,14.86
2019-04-30T10:43:08.996Z,13.70
2019-04-30T10:45:01.655Z,12.74
2019-04-30T10:46:01.673Z,12.05
2019-04-30T10:47:54.926Z,13.12
2019-04-30T10:48:54.959Z,13.62
2019-04-30T10:50:49.223Z,11.57
2019-04-30T10:51:48.202Z,11.97
2019-04-30T10:53:41.442Z,12.26
2019-04-30T10:54:41.471Z,12.26
2019-04-30T10:56:34.708Z,12.16
2019-04-30T10:57:34.738Z,11.87
2019-04-30T10:59:27.945Z,11.38
2019-04-30T11:00:28.656Z,11.83
2019-04-30T11:02:21.141Z,12.06
2019-04-30T11:03:23.094Z,12.36
2019-04-30T11:05:14.398Z,11.38
2019-04-30T11:06:14.417Z,11.87
2019-04-30T11:08:07.920Z,11.19
2019-04-30T11:09:07.636Z,11.29
2019-04-30T11:11:00.857Z,11.89
2019-04-30T11:12:03.037Z,11.19
2019-04-30T11:13:54.051Z,10.80
2019-04-30T11:14:54.066Z,10.99
2019-04-30T11:16:49.076Z,10.91
2019-04-30T11:17:49.481Z,10.71
2019-04-30T11:19:40.693Z,10.33
2019-04-30T11:20:40.637Z,10.03
2019-04-30T11:22:33.996Z,10.13
2019-04-30T11:23:33.889Z,10.24
2019-04-30T11:25:27.749Z,10.93
2019-04-30T11:26:31.132Z,10.05
2019-04-30T11:28:20.760Z,8.89
2019-04-30T11:29:22.926Z,8.60
2019-04-30T11:31:13.565Z,8.20
2019-04-30T11:32:13.628Z,8.20
2019-04-30T11:34:06.590Z,7.50
2019-04-30T11:35:06.612Z,7.16
2019-04-30T11:36:59.807Z,11.86
2019-04-30T11:37:59.831Z,13.98
2019-04-30T11:39:53.048Z,20.01
2019-04-30T11:40:53.060Z,17.80
2019-04-30T11:42:46.241Z,17.97
2019-04-30T11:43:46.254Z,18.62
2019-04-30T11:45:39.471Z,19.87
2019-04-30T11:46:39.489Z,20.36
2019-04-30T11:48:32.699Z,20.24
2019-04-30T11:49:32.706Z,19.92
2019-04-30T11:51:27.046Z,22.52
2019-04-30T11:52:25.933Z,22.72
2019-04-30T11:54:19.109Z,21.62
2019-04-30T11:55:19.384Z,23.18
2019-04-30T11:57:12.331Z,22.77
2019-04-30T11:58:21.348Z,22.39
2019-04-30T12:00:05.649Z,23.65
2019-04-30T12:01:05.542Z,24.23
2019-04-30T12:02:59.333Z,27.13
2019-04-30T12:03:59.802Z,24.99
2019-04-30T12:05:51.954Z,25.09
2019-04-30T12:06:51.973Z,25.28
2019-04-30T12:08:45.164Z,25.76
2019-04-30T12:09:45.178Z,25.18
2019-04-30T12:11:38.380Z,25.18
2019-04-30T12:12:38.849Z,25.45
2019-04-30T12:14:31.587Z,26.32
2019-04-30T12:15:31.598Z,26.21
2019-04-30T12:17:24.782Z,27.08
2019-04-30T12:18:24.807Z,27.27
2019-04-30T12:20:29.696Z,27.37
2019-04-30T12:21:29.699Z,27.37
2019-04-30T12:23:22.874Z,27.85
2019-04-30T12:24:22.909Z,28.22
2019-04-30T12:26:16.102Z,29.57
2019-04-30T12:27:16.118Z,29.28
2019-04-30T12:29:11.224Z,27.45
2019-04-30T12:30:09.297Z,27.83
2019-04-30T12:32:02.485Z,25.71
2019-04-30T12:33:02.482Z,26.37
2019-04-30T12:34:55.696Z,25.69
2019-04-30T12:35:55.703Z,26.46
2019-04-30T12:37:52.073Z,29.07
2019-04-30T12:38:48.874Z,29.07
2019-04-30T12:40:42.125Z,26.65
2019-04-30T12:41:42.142Z,26.75
2019-04-30T12:43:35.299Z,29.63
2019-04-30T12:44:35.346Z,30.22
2019-04-30T12:46:43.886Z,30.98
2019-04-30T12:47:43.890Z,30.32
2019-04-30T12:49:37.052Z,28.86
2019-04-30T12:50:39.100Z,29.06
2019-04-30T12:52:30.241Z,29.52
2019-04-30T12:53:30.244Z,29.63
2019-04-30T12:55:23.487Z,29.63
2019-04-30T12:56:27.122Z,27.81
2019-04-30T12:58:16.746Z,30.31
2019-04-30T12:59:16.746Z,29.15
2019-04-30T13:01:09.923Z,30.31
2019-04-30T13:02:09.931Z,28.96
2019-04-30T13:04:14.800Z,29.35
2019-04-30T13:05:14.809Z,29.35
2019-04-30T13:07:10.240Z,29.83
2019-04-30T13:08:09.787Z,28.09
2019-04-30T13:10:02.492Z,36.66
2019-04-30T13:11:01.591Z,32.04
2019-04-30T13:12:54.869Z,30.77
2019-04-30T13:13:54.975Z,30.87
2019-04-30T13:15:47.669Z,30.00
2019-04-30T13:16:49.043Z,30.68
2019-04-30T13:18:40.847Z,30.29
2019-04-30T13:19:40.883Z,30.68
2019-04-30T13:21:34.110Z,30.29
2019-04-30T13:22:34.112Z,30.19
2019-04-30T13:24:31.035Z,28.56
2019-04-30T13:25:35.157Z,32.79
2019-04-30T13:27:22.575Z,32.89
2019-04-30T13:28:21.571Z,35.02
2019-04-30T13:30:14.798Z,29.04
2019-04-30T13:31:14.812Z,26.93
2019-04-30T13:33:09.452Z,27.49
2019-04-30T13:34:08.516Z,26.34
2019-04-30T13:36:01.283Z,27.39
2019-04-30T13:37:01.317Z,25.95
2019-04-30T13:38:54.453Z,28.47
2019-04-30T13:39:54.471Z,32.21
2019-04-30T13:41:50.709Z,35.77
2019-04-30T13:42:48.801Z,33.08
2019-04-30T13:44:40.867Z,27.98
2019-04-30T13:45:40.875Z,28.56
2019-04-30T13:47:34.074Z,28.08
2019-04-30T13:48:34.070Z,26.83
2019-04-30T13:50:29.094Z,34.33
2019-04-30T13:51:27.262Z,28.47
2019-04-30T13:53:20.504Z,26.25
2019-04-30T13:54:20.514Z,25.68
2019-04-30T13:56:13.754Z,23.85
2019-04-30T13:57:13.752Z,23.18
2019-04-30T13:59:06.948Z,26.25
2019-04-30T14:00:08.592Z,27.98
2019-04-30T14:02:00.148Z,25.85
2019-04-30T14:03:00.900Z,25.67
2019-04-30T14:04:53.356Z,25.57
2019-04-30T14:05:53.337Z,25.09
2019-04-30T14:07:46.500Z,24.80
2019-04-30T14:08:46.530Z,25.09
2019-04-30T14:10:39.750Z,25.18
2019-04-30T14:11:39.762Z,24.99
2019-04-30T14:13:32.918Z,25.47
2019-04-30T14:14:32.926Z,25.67
2019-04-30T14:16:26.116Z,24.99
2019-04-30T14:17:26.115Z,26.24
2019-04-30T14:19:19.627Z,27.30
2019-04-30T14:20:19.343Z,26.62
2019-04-30T14:22:12.519Z,24.22
2019-04-30T14:23:12.546Z,24.03
2019-04-30T14:25:05.757Z,25.09
2019-04-30T14:26:05.789Z,24.80
2019-04-30T14:27:59.346Z,29.32
2019-04-30T14:28:58.961Z,28.95
2019-04-30T14:30:52.156Z,24.32
2019-04-30T14:31:52.160Z,27.80
2019-04-30T14:33:45.363Z,28.37
2019-04-30T14:34:45.381Z,26.05
2019-04-30T14:36:39.180Z,24.70
2019-04-30T14:37:38.995Z,24.90
2019-04-30T14:39:31.988Z,27.11
2019-04-30T14:40:32.288Z,26.82
2019-04-30T14:42:25.819Z,31.54
2019-04-30T14:43:25.498Z,34.14
2019-04-30T14:45:18.593Z,31.54
2019-04-30T14:46:20.691Z,29.72
2019-04-30T14:48:12.048Z,32.79
2019-04-30T14:49:14.773Z,29.04
2019-04-30T14:51:04.607Z,29.43
2019-04-30T14:52:04.645Z,33.56
2019-04-30T14:53:58.872Z,31.74
2019-04-30T14:54:58.796Z,29.33
2019-04-30T14:56:51.021Z,30.68
2019-04-30T14:57:51.336Z,29.04
2019-04-30T14:59:44.182Z,38.76
2019-04-30T15:00:44.202Z,31.35
2019-04-30T15:02:37.394Z,30.19
2019-04-30T15:03:39.372Z,27.98
2019-04-30T15:05:39.141Z,30.97
2019-04-30T15:06:30.735Z,32.03
2019-04-30T15:08:24.019Z,29.43
2019-04-30T15:09:24.020Z,29.14
2019-04-30T15:11:18.986Z,30.29
2019-04-30T15:12:17.243Z,27.89
2019-04-30T15:14:10.393Z,27.12
2019-04-30T15:15:10.421Z,27.12
2019-04-30T15:17:03.575Z,24.91
2019-04-30T15:18:03.608Z,26.72
2019-04-30T15:19:58.630Z,28.95
2019-04-30T15:20:56.774Z,29.52
2019-04-30T15:22:49.951Z,24.99
2019-04-30T15:23:58.590Z,26.92
2019-04-30T15:25:43.209Z,26.43
2019-04-30T15:26:43.207Z,25.29
2019-04-30T15:28:36.377Z,30.31
2019-04-30T15:29:36.386Z,31.37
2019-04-30T15:31:29.845Z,29.54
2019-04-30T15:32:29.640Z,26.25
2019-04-30T15:34:22.837Z,25.48
2019-04-30T15:35:22.844Z,25.67
2019-04-30T15:37:21.743Z,27.59
2019-04-30T15:38:16.058Z,29.32
2019-04-30T15:40:09.209Z,37.02
2019-04-30T15:41:09.218Z,34.22
2019-04-30T15:43:02.530Z,26.05
2019-04-30T15:44:02.410Z,23.74
2019-04-30T15:45:57.298Z,24.70
2019-04-30T15:46:55.846Z,26.82
2019-04-30T15:48:48.950Z,24.22
2019-04-30T15:49:48.963Z,24.70
2019-04-30T15:51:42.164Z,23.93
2019-04-30T15:52:42.159Z,23.73
2019-04-30T15:54:35.350Z,23.73
2019-04-30T15:55:35.364Z,22.38
2019-04-30T15:57:29.546Z,26.90
2019-04-30T15:58:28.956Z,25.56
2019-04-30T16:00:21.731Z,25.65
2019-04-30T16:01:21.750Z,25.27
2019-04-30T16:03:14.946Z,25.94
2019-04-30T16:04:14.956Z,25.94
2019-04-30T16:06:08.349Z,26.13
2019-04-30T16:07:08.544Z,26.23
2019-04-30T16:09:01.372Z,24.69
2019-04-30T16:10:01.371Z,24.30
2019-04-30T16:11:54.537Z,31.15
2019-04-30T16:12:54.532Z,35.66
2019-04-30T16:14:47.718Z,40.95
2019-04-30T16:15:49.187Z,37.10
2019-04-30T16:17:40.936Z,34.22
2019-04-30T16:18:40.955Z,26.81
2019-04-30T16:20:34.114Z,27.00
2019-04-30T16:21:34.137Z,24.40
2019-04-30T16:23:27.324Z,28.72
2019-04-30T16:24:28.700Z,30.26
2019-04-30T16:26:20.549Z,28.55
2019-04-30T16:27:20.562Z,28.45
2019-04-30T16:29:13.745Z,27.67
2019-04-30T16:30:13.742Z,29.51
2019-04-30T16:32:09.131Z,22.48
2019-04-30T16:33:06.950Z,26.05
2019-04-30T16:35:00.159Z,23.35
2019-04-30T16:37:53.381Z,22.38
2019-04-30T16:38:53.375Z,22.38
2019-04-30T16:40:48.404Z,23.54
2019-04-30T16:41:46.605Z,24.29
2019-04-30T16:43:39.754Z,24.29
2019-04-30T16:44:39.762Z,23.44
2019-04-30T16:46:32.911Z,23.44
2019-04-30T16:47:32.931Z,23.52
2019-04-30T16:49:26.156Z,23.43
2019-04-30T16:50:26.235Z,22.66
2019-04-30T16:52:19.346Z,23.33
2019-04-30T16:53:19.354Z,23.91
2019-04-30T16:55:12.529Z,23.72
2019-04-30T16:56:12.553Z,23.62
2019-04-30T16:58:05.765Z,25.45
2019-04-30T16:59:05.753Z,25.26
2019-04-30T17:00:59.391Z,25.45
2019-04-30T17:02:00.478Z,24.49
2019-04-30T17:03:52.111Z,24.58
2019-04-30T17:04:52.131Z,24.68
2019-04-30T17:06:45.376Z,25.62
2019-04-30T17:07:45.386Z,25.54
2019-04-30T17:09:52.876Z,25.93
2019-04-30T17:10:52.897Z,25.64
2019-04-30T17:12:46.610Z,25.72
2019-04-30T17:13:46.089Z,25.43
2019-04-30T17:15:53.649Z,26.01
2019-04-30T17:16:53.637Z,25.92
2019-04-30T17:18:49.259Z,25.43
2019-04-30T17:19:46.854Z,26.39
2019-04-30T17:21:40.017Z,26.49
2019-04-30T17:22:40.036Z,26.78
2019-04-30T17:24:33.304Z,26.59
2019-04-30T17:25:33.226Z,26.87
2019-04-30T17:27:26.373Z,26.59
2019-04-30T17:28:28.482Z,26.97
2019-04-30T17:30:19.670Z,26.20
2019-04-30T17:31:19.641Z,26.59
2019-04-30T17:33:12.880Z,26.68
2019-04-30T17:34:12.886Z,26.59
2019-04-30T17:36:06.058Z,26.97
2019-04-30T17:37:06.074Z,26.30
2019-04-30T17:38:59.222Z,26.20
2019-04-30T17:39:59.236Z,26.78
2019-04-30T17:41:52.401Z,26.97
2019-04-30T17:42:52.417Z,26.19
2019-04-30T17:44:56.142Z,27.53
2019-04-30T17:45:45.626Z,27.44
2019-04-30T17:47:38.813Z,27.16
2019-04-30T17:48:39.401Z,27.45
2019-04-30T17:50:31.989Z,27.06
2019-04-30T17:51:31.996Z,27.36
2019-04-30T17:53:25.207Z,26.67
2019-04-30T17:54:25.235Z,26.48
2019-04-30T17:56:18.447Z,27.63
2019-04-30T17:59:11.645Z,28.88
2019-04-30T18:00:18.844Z,28.49
2019-04-30T18:02:04.916Z,28.88
2019-04-30T18:03:04.926Z,29.45
2019-04-30T18:04:58.134Z,28.39
2019-04-30T18:05:59.227Z,29.06
2019-04-30T18:07:51.365Z,29.45
2019-04-30T18:08:51.326Z,29.16
2019-04-30T18:10:44.569Z,29.53
2019-04-30T18:11:44.586Z,29.55
2019-04-30T18:13:37.761Z,29.06
2019-04-30T18:14:39.533Z,29.64
2019-04-30T18:16:31.007Z,29.91
2019-04-30T18:17:30.992Z,29.72
2019-04-30T18:19:24.179Z,30.49
2019-04-30T18:20:24.186Z,29.82
2019-04-30T18:22:19.428Z,30.49
2019-04-30T18:23:17.366Z,30.49
2019-04-30T18:25:10.572Z,30.20
2019-04-30T18:26:10.607Z,29.91
2019-04-30T18:28:03.770Z,30.78
2019-04-30T18:29:03.759Z,30.30
2019-04-30T18:30:58.886Z,30.58
2019-04-30T18:31:59.700Z,30.11
2019-04-30T18:34:04.621Z,30.78
2019-04-30T18:35:04.628Z,30.97
2019-04-30T18:37:12.336Z,31.05
2019-04-30T18:38:12.221Z,30.76
2019-04-30T18:40:05.411Z,30.86
2019-04-30T18:41:05.408Z,31.24
2019-04-30T18:42:59.390Z,31.43
2019-04-30T18:43:59.659Z,31.24
2019-04-30T18:45:51.790Z,31.05